EWG122 EDDF-LEPA
Flight info
| Callsign | EWG122 |
|---|---|
| Flight time | 2h 17m |
| Altitude | 29000 |
| Route | ANEKI2L/18 ANEKI Y163 HERBI/N0448F390 Y164 MOPAN DCT LUTIX DCT BENOT DCT NEMOS DCT GEVEA DCT INCUS DCT BALSI DCT RETNO DCT TUPOX DCT MTG DCT DIVKO DCT VATIR DCT PIVUS N852 VERSO L129 LUNIK |
| Aircraft | A20N/M-SDE2E3FGHIRWXY/LB1 |
Departure
| Time | 2026-05-06 14:46 |
|---|---|
| Airport | Frankfurt Main Airport (EDDF) |
Arrival
| Time | 2026-05-06 17:03 |
|---|---|
| Airport | Palma de Mallorca Airport (LEPA) |
| Time | Latitude | Longitude | Altitude | Speed | Heading |
|---|---|---|---|---|---|
| 2026-05-06 14:22 | 50.04463 | 8.56424 | 363 ft | 0 kts | 155° |
| 2026-05-06 14:34 | 50.04481 | 8.56411 | 365 ft | 0 kts | 155° |
| 2026-05-06 14:35 | 50.04494 | 8.56403 | 362 ft | 9 kts | 172° |
| 2026-05-06 14:35 | 50.04535 | 8.56435 | 361 ft | 0 kts | 239° |
| 2026-05-06 14:37 | 50.04531 | 8.56425 | 363 ft | 0 kts | 239° |
| 2026-05-06 14:37 | 50.04522 | 8.56398 | 360 ft | 16 kts | 242° |
| 2026-05-06 14:38 | 50.04468 | 8.56186 | 364 ft | 22 kts | 246° |
| 2026-05-06 14:38 | 50.04404 | 8.56025 | 358 ft | 10 kts | 205° |
| 2026-05-06 14:38 | 50.04358 | 8.56033 | 362 ft | 12 kts | 144° |
| 2026-05-06 14:38 | 50.04272 | 8.56077 | 352 ft | 7 kts | 190° |
| 2026-05-06 14:39 | 50.04258 | 8.56062 | 354 ft | 0 kts | 240° |
| 2026-05-06 14:39 | 50.04251 | 8.56013 | 360 ft | 9 kts | 257° |
| 2026-05-06 14:39 | 50.04226 | 8.55881 | 360 ft | 17 kts | 250° |
| 2026-05-06 14:39 | 50.04183 | 8.55700 | 359 ft | 17 kts | 247° |
| 2026-05-06 14:40 | 50.04140 | 8.55533 | 358 ft | 16 kts | 252° |
| 2026-05-06 14:40 | 50.04104 | 8.55372 | 359 ft | 15 kts | 249° |
| 2026-05-06 14:40 | 50.04070 | 8.55234 | 360 ft | 13 kts | 250° |
| 2026-05-06 14:40 | 50.04039 | 8.55101 | 355 ft | 13 kts | 250° |
| 2026-05-06 14:41 | 50.04006 | 8.54965 | 359 ft | 13 kts | 248° |
| 2026-05-06 14:41 | 50.03970 | 8.54828 | 355 ft | 14 kts | 248° |
| 2026-05-06 14:41 | 50.03936 | 8.54674 | 353 ft | 15 kts | 251° |
| 2026-05-06 14:41 | 50.03900 | 8.54521 | 349 ft | 15 kts | 249° |
| 2026-05-06 14:42 | 50.03862 | 8.54377 | 352 ft | 13 kts | 241° |
| 2026-05-06 14:42 | 50.03828 | 8.54298 | 352 ft | 8 kts | 238° |
| 2026-05-06 14:42 | 50.03774 | 8.54115 | 354 ft | 29 kts | 249° |
| 2026-05-06 14:42 | 50.03705 | 8.53826 | 338 ft | 29 kts | 250° |
| 2026-05-06 14:43 | 50.03641 | 8.53563 | 333 ft | 28 kts | 248° |
| 2026-05-06 14:43 | 50.03575 | 8.53292 | 333 ft | 25 kts | 250° |
| 2026-05-06 14:43 | 50.03523 | 8.53078 | 339 ft | 19 kts | 249° |
| 2026-05-06 14:43 | 50.03481 | 8.52905 | 345 ft | 15 kts | 248° |
| 2026-05-06 14:44 | 50.03450 | 8.52790 | 350 ft | 9 kts | 248° |
| 2026-05-06 14:44 | 50.03428 | 8.52707 | 356 ft | 11 kts | 248° |
| 2026-05-06 14:44 | 50.03347 | 8.52598 | 348 ft | 11 kts | 187° |
| 2026-05-06 14:45 | 50.03329 | 8.52596 | 350 ft | 1 kts | 182° |
| 2026-05-06 14:45 | 50.03100 | 8.52595 | 343 ft | 78 kts | 180° |
| 2026-05-06 14:45 | 50.02298 | 8.52602 | 354 ft | 151 kts | 180° |
| 2026-05-06 14:45 | 50.01106 | 8.52606 | 736 ft | 184 kts | 181° |
| 2026-05-06 14:46 | 49.99794 | 8.52703 | 1723 ft | 185 kts | 180° |
| 2026-05-06 14:46 | 49.98539 | 8.52803 | 2991 ft | 174 kts | 180° |
| 2026-05-06 14:46 | 49.97368 | 8.52893 | 4056 ft | 164 kts | 181° |
| 2026-05-06 14:46 | 49.96255 | 8.52973 | 5026 ft | 157 kts | 181° |
| 2026-05-06 14:47 | 49.95189 | 8.53041 | 5887 ft | 157 kts | 181° |
| 2026-05-06 14:47 | 49.94004 | 8.53108 | 6268 ft | 190 kts | 181° |
| 2026-05-06 14:47 | 49.92502 | 8.53184 | 6223 ft | 235 kts | 180° |
| 2026-05-06 14:47 | 49.90802 | 8.53291 | 6190 ft | 251 kts | 180° |
| 2026-05-06 14:48 | 49.89052 | 8.53416 | 6131 ft | 252 kts | 180° |
| 2026-05-06 14:48 | 49.87296 | 8.53542 | 5939 ft | 256 kts | 180° |
| 2026-05-06 14:48 | 49.85469 | 8.53666 | 5734 ft | 267 kts | 180° |
| 2026-05-06 14:48 | 49.83615 | 8.53790 | 5540 ft | 264 kts | 180° |
| 2026-05-06 14:49 | 49.81784 | 8.53912 | 5338 ft | 262 kts | 180° |
| 2026-05-06 14:49 | 49.79961 | 8.54030 | 5437 ft | 262 kts | 180° |
| 2026-05-06 14:49 | 49.78126 | 8.54125 | 5876 ft | 269 kts | 184° |
| 2026-05-06 14:49 | 49.76218 | 8.53893 | 6611 ft | 283 kts | 187° |
| 2026-05-06 14:50 | 49.74210 | 8.53614 | 7365 ft | 296 kts | 187° |
| 2026-05-06 14:50 | 49.72114 | 8.53334 | 8122 ft | 308 kts | 186° |
| 2026-05-06 14:50 | 49.69939 | 8.53048 | 8911 ft | 319 kts | 186° |
| 2026-05-06 14:50 | 49.67684 | 8.52751 | 9712 ft | 330 kts | 186° |
| 2026-05-06 14:51 | 49.65365 | 8.52445 | 10443 ft | 339 kts | 186° |
| 2026-05-06 14:51 | 49.62982 | 8.52131 | 11192 ft | 348 kts | 186° |
| 2026-05-06 14:51 | 49.60545 | 8.51812 | 11952 ft | 355 kts | 186° |
| 2026-05-06 14:51 | 49.58068 | 8.51487 | 12731 ft | 361 kts | 186° |
| 2026-05-06 14:52 | 49.55547 | 8.51156 | 13533 ft | 366 kts | 186° |
| 2026-05-06 14:52 | 49.52990 | 8.50820 | 14255 ft | 371 kts | 186° |
| 2026-05-06 14:52 | 49.50408 | 8.50480 | 14994 ft | 375 kts | 186° |
| 2026-05-06 14:52 | 49.47796 | 8.50138 | 15747 ft | 378 kts | 186° |
| 2026-05-06 14:53 | 49.45158 | 8.49793 | 16521 ft | 381 kts | 186° |
| 2026-05-06 14:53 | 49.42506 | 8.49445 | 17313 ft | 384 kts | 185° |
| 2026-05-06 14:53 | 49.39836 | 8.49097 | 18114 ft | 386 kts | 185° |
| 2026-05-06 14:53 | 49.37156 | 8.48747 | 18827 ft | 387 kts | 185° |
| 2026-05-06 14:54 | 49.34465 | 8.48397 | 19557 ft | 388 kts | 185° |
| 2026-05-06 14:54 | 49.31776 | 8.48046 | 20295 ft | 389 kts | 185° |
| 2026-05-06 14:54 | 49.29101 | 8.47699 | 21063 ft | 389 kts | 186° |
| 2026-05-06 14:54 | 49.26408 | 8.47349 | 21853 ft | 388 kts | 186° |
| 2026-05-06 14:55 | 49.23716 | 8.46999 | 22665 ft | 387 kts | 186° |
| 2026-05-06 14:55 | 49.21033 | 8.46650 | 23471 ft | 386 kts | 186° |
| 2026-05-06 14:55 | 49.18362 | 8.46302 | 24183 ft | 384 kts | 185° |
| 2026-05-06 14:55 | 49.16596 | 8.46073 | 24662 ft | 382 kts | 185° |
| 2026-05-06 14:56 | 49.13960 | 8.45731 | 25398 ft | 379 kts | 185° |
| 2026-05-06 14:56 | 49.11345 | 8.45392 | 26156 ft | 375 kts | 185° |
| 2026-05-06 14:56 | 49.08761 | 8.45058 | 26934 ft | 370 kts | 185° |
| 2026-05-06 14:56 | 49.06213 | 8.44651 | 27733 ft | 364 kts | 189° |
| 2026-05-06 14:57 | 49.03759 | 8.43865 | 28553 ft | 357 kts | 193° |
| 2026-05-06 14:57 | 49.01364 | 8.43015 | 29401 ft | 349 kts | 193° |
| 2026-05-06 14:57 | 48.99024 | 8.42192 | 30190 ft | 340 kts | 193° |
| 2026-05-06 14:57 | 48.96751 | 8.41399 | 30935 ft | 330 kts | 193° |
| 2026-05-06 14:58 | 48.94544 | 8.40633 | 31688 ft | 319 kts | 193° |
| 2026-05-06 14:58 | 48.92414 | 8.39895 | 32445 ft | 308 kts | 194° |
| 2026-05-06 14:58 | 48.90335 | 8.39175 | 32854 ft | 308 kts | 194° |
| 2026-05-06 14:58 | 48.88238 | 8.38448 | 33070 ft | 310 kts | 194° |
| 2026-05-06 14:59 | 48.86153 | 8.37725 | 33344 ft | 312 kts | 194° |
| 2026-05-06 14:59 | 48.84035 | 8.36992 | 33600 ft | 314 kts | 194° |
| 2026-05-06 14:59 | 48.81873 | 8.36244 | 33864 ft | 315 kts | 194° |
| 2026-05-06 14:59 | 48.79751 | 8.35510 | 34039 ft | 318 kts | 194° |
| 2026-05-06 15:00 | 48.77588 | 8.34758 | 34239 ft | 320 kts | 195° |
| 2026-05-06 15:00 | 48.75403 | 8.33964 | 34405 ft | 323 kts | 195° |
| 2026-05-06 15:00 | 48.73207 | 8.33152 | 34585 ft | 325 kts | 195° |
| 2026-05-06 15:00 | 48.70996 | 8.32337 | 34715 ft | 328 kts | 195° |
| 2026-05-06 15:01 | 48.68775 | 8.31521 | 34894 ft | 330 kts | 195° |
| 2026-05-06 15:01 | 48.66531 | 8.30701 | 35035 ft | 332 kts | 195° |
| 2026-05-06 15:01 | 48.64476 | 8.29952 | 35227 ft | 333 kts | 195° |
| 2026-05-06 15:01 | 48.62246 | 8.29140 | 35387 ft | 336 kts | 195° |
| 2026-05-06 15:02 | 48.59960 | 8.28310 | 35544 ft | 338 kts | 195° |
| 2026-05-06 15:02 | 48.57668 | 8.27477 | 35711 ft | 340 kts | 195° |
| 2026-05-06 15:02 | 48.55359 | 8.26640 | 35877 ft | 342 kts | 195° |
| 2026-05-06 15:02 | 48.53040 | 8.25799 | 36053 ft | 344 kts | 195° |
| 2026-05-06 15:03 | 48.50695 | 8.24950 | 36200 ft | 346 kts | 195° |
| 2026-05-06 15:03 | 48.48348 | 8.24101 | 36364 ft | 348 kts | 195° |
| 2026-05-06 15:03 | 48.45985 | 8.23239 | 36520 ft | 350 kts | 195° |
| 2026-05-06 15:03 | 48.43610 | 8.22370 | 36666 ft | 352 kts | 195° |
| 2026-05-06 15:04 | 48.41216 | 8.21494 | 36813 ft | 354 kts | 195° |
| 2026-05-06 15:04 | 48.36352 | 8.19717 | 36854 ft | 366 kts | 195° |
| 2026-05-06 15:05 | 48.31344 | 8.17893 | 36858 ft | 378 kts | 195° |
| 2026-05-06 15:05 | 48.26143 | 8.15977 | 36857 ft | 391 kts | 198° |
| 2026-05-06 15:06 | 48.21080 | 8.12863 | 36860 ft | 402 kts | 207° |
| 2026-05-06 15:06 | 48.15981 | 8.09054 | 36858 ft | 416 kts | 207° |
| 2026-05-06 15:07 | 48.10716 | 8.05159 | 36864 ft | 428 kts | 207° |
| 2026-05-06 15:07 | 48.05345 | 8.01203 | 36867 ft | 430 kts | 207° |
| 2026-05-06 15:08 | 47.99976 | 7.97259 | 36870 ft | 429 kts | 207° |
| 2026-05-06 15:08 | 47.94612 | 7.93325 | 36873 ft | 429 kts | 207° |
| 2026-05-06 15:09 | 47.89279 | 7.89423 | 36875 ft | 429 kts | 207° |
| 2026-05-06 15:09 | 47.83930 | 7.85518 | 36876 ft | 428 kts | 207° |
| 2026-05-06 15:10 | 47.78577 | 7.81619 | 36520 ft | 427 kts | 207° |
| 2026-05-06 15:10 | 47.75916 | 7.79685 | 36263 ft | 425 kts | 206° |
| 2026-05-06 15:10 | 47.73259 | 7.77755 | 36022 ft | 424 kts | 206° |
| 2026-05-06 15:10 | 47.70607 | 7.75832 | 35775 ft | 423 kts | 206° |
| 2026-05-06 15:11 | 47.67961 | 7.73914 | 35535 ft | 423 kts | 206° |
| 2026-05-06 15:11 | 47.65324 | 7.72005 | 35287 ft | 422 kts | 206° |
| 2026-05-06 15:11 | 47.62685 | 7.70097 | 35049 ft | 421 kts | 206° |
| 2026-05-06 15:11 | 47.60048 | 7.68192 | 34808 ft | 421 kts | 206° |
| 2026-05-06 15:12 | 47.57425 | 7.66301 | 34573 ft | 421 kts | 206° |
| 2026-05-06 15:12 | 47.54781 | 7.64396 | 34337 ft | 421 kts | 206° |
| 2026-05-06 15:12 | 47.52941 | 7.63072 | 34173 ft | 420 kts | 206° |
| 2026-05-06 15:12 | 47.50316 | 7.61184 | 33942 ft | 420 kts | 206° |
| 2026-05-06 15:13 | 47.47687 | 7.59296 | 33680 ft | 420 kts | 206° |
| 2026-05-06 15:13 | 47.45053 | 7.57406 | 33403 ft | 421 kts | 206° |
| 2026-05-06 15:13 | 47.42443 | 7.55536 | 33142 ft | 423 kts | 206° |
| 2026-05-06 15:13 | 47.39793 | 7.53640 | 32877 ft | 423 kts | 206° |
| 2026-05-06 15:14 | 47.37142 | 7.51744 | 32608 ft | 424 kts | 206° |
| 2026-05-06 15:14 | 47.34482 | 7.49844 | 32351 ft | 425 kts | 206° |
| 2026-05-06 15:14 | 47.31822 | 7.47946 | 32093 ft | 426 kts | 206° |
| 2026-05-06 15:14 | 47.29150 | 7.46043 | 31839 ft | 426 kts | 206° |
| 2026-05-06 15:15 | 47.26481 | 7.44143 | 31577 ft | 425 kts | 206° |
| 2026-05-06 15:15 | 47.23810 | 7.42244 | 31323 ft | 426 kts | 206° |
| 2026-05-06 15:15 | 47.21137 | 7.40345 | 31079 ft | 428 kts | 206° |
| 2026-05-06 15:15 | 47.18538 | 7.38205 | 30829 ft | 427 kts | 213° |
| 2026-05-06 15:16 | 47.16166 | 7.35584 | 30578 ft | 426 kts | 220° |
| 2026-05-06 15:16 | 47.14057 | 7.32535 | 30364 ft | 426 kts | 227° |
| 2026-05-06 15:16 | 47.12205 | 7.29168 | 30362 ft | 427 kts | 230° |
| 2026-05-06 15:16 | 47.10352 | 7.25721 | 30624 ft | 429 kts | 230° |
| 2026-05-06 15:17 | 47.08506 | 7.22311 | 31156 ft | 425 kts | 230° |
| 2026-05-06 15:17 | 47.06730 | 7.19042 | 31913 ft | 416 kts | 230° |
| 2026-05-06 15:17 | 47.04905 | 7.15689 | 32958 ft | 401 kts | 230° |
| 2026-05-06 15:17 | 47.03201 | 7.12561 | 34001 ft | 385 kts | 229° |
| 2026-05-06 15:18 | 47.01582 | 7.09595 | 34917 ft | 368 kts | 229° |
| 2026-05-06 15:18 | 47.00024 | 7.06744 | 35864 ft | 348 kts | 229° |
| 2026-05-06 15:18 | 46.98531 | 7.04016 | 36416 ft | 343 kts | 230° |
| 2026-05-06 15:19 | 46.95517 | 6.98526 | 36676 ft | 348 kts | 230° |
| 2026-05-06 15:19 | 46.93993 | 6.95752 | 36834 ft | 350 kts | 230° |
| 2026-05-06 15:19 | 46.92464 | 6.92971 | 36976 ft | 352 kts | 229° |
| 2026-05-06 15:20 | 46.88935 | 6.87917 | 37029 ft | 361 kts | 218° |
| 2026-05-06 15:20 | 46.84963 | 6.83224 | 37033 ft | 374 kts | 219° |
| 2026-05-06 15:21 | 46.80867 | 6.78347 | 37030 ft | 387 kts | 219° |
| 2026-05-06 15:21 | 46.76620 | 6.73298 | 37028 ft | 400 kts | 219° |
| 2026-05-06 15:22 | 46.72240 | 6.68103 | 37027 ft | 412 kts | 219° |
| 2026-05-06 15:22 | 46.67746 | 6.62785 | 37031 ft | 424 kts | 219° |
| 2026-05-06 15:23 | 46.63118 | 6.57320 | 37034 ft | 429 kts | 219° |
| 2026-05-06 15:23 | 46.58486 | 6.51862 | 37032 ft | 429 kts | 219° |
| 2026-05-06 15:24 | 46.53846 | 6.46408 | 37040 ft | 429 kts | 219° |
| 2026-05-06 15:24 | 46.49201 | 6.40961 | 37035 ft | 429 kts | 219° |
| 2026-05-06 15:25 | 46.44556 | 6.35526 | 37044 ft | 429 kts | 219° |
| 2026-05-06 15:25 | 46.39899 | 6.30089 | 37045 ft | 430 kts | 219° |
| 2026-05-06 15:26 | 46.35234 | 6.24655 | 37050 ft | 430 kts | 219° |
| 2026-05-06 15:26 | 46.30570 | 6.19235 | 37054 ft | 430 kts | 219° |
| 2026-05-06 15:27 | 46.25620 | 6.14412 | 37055 ft | 431 kts | 206° |
| 2026-05-06 15:27 | 46.19851 | 6.11956 | 37060 ft | 435 kts | 190° |
| 2026-05-06 15:28 | 46.13900 | 6.10669 | 37058 ft | 435 kts | 191° |
| 2026-05-06 15:28 | 46.07915 | 6.09344 | 37052 ft | 435 kts | 191° |
| 2026-05-06 15:29 | 46.01939 | 6.08019 | 37055 ft | 435 kts | 191° |
| 2026-05-06 15:29 | 45.95961 | 6.06698 | 37056 ft | 434 kts | 191° |
| 2026-05-06 15:30 | 45.89975 | 6.05376 | 37056 ft | 434 kts | 191° |
| 2026-05-06 15:30 | 45.84009 | 6.04063 | 37055 ft | 434 kts | 191° |
| 2026-05-06 15:31 | 45.78031 | 6.02741 | 37052 ft | 434 kts | 191° |
| 2026-05-06 15:31 | 45.72065 | 6.01424 | 37030 ft | 434 kts | 191° |
| 2026-05-06 15:32 | 45.63122 | 5.99457 | 37030 ft | 434 kts | 191° |
| 2026-05-06 15:32 | 45.57165 | 5.98149 | 37028 ft | 433 kts | 192° |
| 2026-05-06 15:33 | 45.51241 | 5.96852 | 37030 ft | 433 kts | 192° |
| 2026-05-06 15:33 | 45.45325 | 5.95349 | 37037 ft | 431 kts | 195° |
| 2026-05-06 15:34 | 45.39454 | 5.93499 | 37039 ft | 431 kts | 195° |
| 2026-05-06 15:34 | 45.33846 | 5.91745 | 37043 ft | 429 kts | 195° |
| 2026-05-06 15:35 | 45.27994 | 5.89921 | 37050 ft | 430 kts | 195° |
| 2026-05-06 15:35 | 45.22153 | 5.88104 | 37048 ft | 429 kts | 195° |
| 2026-05-06 15:36 | 45.16311 | 5.86291 | 37046 ft | 429 kts | 195° |
| 2026-05-06 15:36 | 45.10520 | 5.84498 | 37048 ft | 428 kts | 195° |
| 2026-05-06 15:37 | 45.05225 | 5.82820 | 37135 ft | 424 kts | 199° |
| 2026-05-06 15:37 | 45.02406 | 5.81762 | 37645 ft | 414 kts | 198° |
| 2026-05-06 15:37 | 44.99634 | 5.80783 | 38158 ft | 409 kts | 196° |
| 2026-05-06 15:38 | 44.96876 | 5.79899 | 38632 ft | 404 kts | 195° |
| 2026-05-06 15:38 | 44.94060 | 5.79067 | 37678 ft | 423 kts | 194° |
| 2026-05-06 15:38 | 44.91143 | 5.78291 | 36838 ft | 429 kts | 193° |
| 2026-05-06 15:38 | 44.88209 | 5.77619 | 36697 ft | 425 kts | 192° |
| 2026-05-06 15:39 | 44.82298 | 5.76606 | 36778 ft | 430 kts | 189° |
| 2026-05-06 15:39 | 44.79475 | 5.76062 | 37108 ft | 421 kts | 191° |
| 2026-05-06 15:39 | 44.76567 | 5.75529 | 37218 ft | 424 kts | 191° |
| 2026-05-06 15:40 | 44.70648 | 5.74572 | 37211 ft | 430 kts | 189° |
| 2026-05-06 15:40 | 44.64668 | 5.73989 | 37181 ft | 430 kts | 186° |
| 2026-05-06 15:41 | 44.58698 | 5.73685 | 36939 ft | 429 kts | 189° |
| 2026-05-06 15:41 | 44.56735 | 5.73349 | 36766 ft | 429 kts | 193° |
| 2026-05-06 15:41 | 44.53820 | 5.72519 | 36710 ft | 424 kts | 197° |
| 2026-05-06 15:42 | 44.48139 | 5.70378 | 36790 ft | 423 kts | 199° |
| 2026-05-06 15:42 | 44.45324 | 5.69191 | 36904 ft | 423 kts | 202° |
| 2026-05-06 15:42 | 44.42566 | 5.67753 | 36957 ft | 423 kts | 205° |
| 2026-05-06 15:43 | 44.37248 | 5.64328 | 37002 ft | 418 kts | 208° |
| 2026-05-06 15:43 | 44.32061 | 5.60707 | 37059 ft | 421 kts | 208° |
| 2026-05-06 15:44 | 44.26775 | 5.57189 | 37096 ft | 420 kts | 207° |
| 2026-05-06 15:44 | 44.21363 | 5.54060 | 37149 ft | 422 kts | 203° |
| 2026-05-06 15:45 | 44.15810 | 5.51379 | 37174 ft | 422 kts | 204° |
| 2026-05-06 15:45 | 44.10411 | 5.48232 | 37215 ft | 421 kts | 205° |
| 2026-05-06 15:46 | 44.04956 | 5.45266 | 37105 ft | 421 kts | 202° |
| 2026-05-06 15:46 | 43.99527 | 5.42280 | 37015 ft | 418 kts | 209° |
| 2026-05-06 15:47 | 43.94285 | 5.38747 | 37017 ft | 419 kts | 207° |
| 2026-05-06 15:47 | 43.88906 | 5.35620 | 37007 ft | 419 kts | 205° |
| 2026-05-06 15:48 | 43.83467 | 5.32669 | 37016 ft | 419 kts | 204° |
| 2026-05-06 15:48 | 43.78061 | 5.29765 | 37023 ft | 419 kts | 204° |
| 2026-05-06 15:49 | 43.72627 | 5.26847 | 37024 ft | 419 kts | 205° |
| 2026-05-06 15:49 | 43.67198 | 5.23933 | 37026 ft | 418 kts | 205° |
| 2026-05-06 15:50 | 43.63942 | 5.22189 | 37026 ft | 418 kts | 205° |
| 2026-05-06 15:52 | 43.61821 | 5.21053 | 37025 ft | 418 kts | 205° |
| 2026-05-06 15:52 | 43.56387 | 5.18147 | 37028 ft | 417 kts | 205° |
| 2026-05-06 15:53 | 43.51150 | 5.15352 | 37028 ft | 418 kts | 205° |
| 2026-05-06 15:53 | 43.48266 | 5.13815 | 37026 ft | 418 kts | 205° |
| 2026-05-06 15:54 | 43.44725 | 5.11931 | 37027 ft | 418 kts | 205° |
| 2026-05-06 15:54 | 43.42495 | 5.10745 | 37028 ft | 418 kts | 205° |
| 2026-05-06 15:55 | 43.37256 | 5.07361 | 37028 ft | 414 kts | 214° |
| 2026-05-06 15:55 | 43.34291 | 5.04631 | 37025 ft | 413 kts | 217° |
| 2026-05-06 15:56 | 43.33075 | 5.03471 | 37028 ft | 413 kts | 217° |
| 2026-05-06 15:57 | 43.30435 | 5.00965 | 37027 ft | 413 kts | 217° |
| 2026-05-06 15:59 | 43.26090 | 4.96869 | 37026 ft | 413 kts | 217° |
| 2026-05-06 16:00 | 43.21344 | 4.92410 | 37027 ft | 413 kts | 217° |
| 2026-05-06 16:00 | 43.16593 | 4.87957 | 37029 ft | 413 kts | 217° |
| 2026-05-06 16:01 | 43.11846 | 4.83515 | 37033 ft | 413 kts | 217° |
| 2026-05-06 16:01 | 43.07091 | 4.79075 | 37035 ft | 413 kts | 217° |
| 2026-05-06 16:02 | 43.02131 | 4.75038 | 37035 ft | 416 kts | 212° |
| 2026-05-06 16:02 | 42.97107 | 4.71237 | 37035 ft | 415 kts | 212° |
| 2026-05-06 16:03 | 42.92022 | 4.67387 | 37037 ft | 415 kts | 212° |
| 2026-05-06 16:03 | 42.87004 | 4.63591 | 37041 ft | 415 kts | 212° |
| 2026-05-06 16:04 | 42.81948 | 4.59776 | 37042 ft | 416 kts | 212° |
| 2026-05-06 16:04 | 42.76856 | 4.55941 | 37043 ft | 415 kts | 212° |
| 2026-05-06 16:05 | 42.71799 | 4.52140 | 37049 ft | 415 kts | 212° |
| 2026-05-06 16:05 | 42.66745 | 4.48348 | 37046 ft | 415 kts | 212° |
| 2026-05-06 16:06 | 42.61694 | 4.44565 | 36978 ft | 414 kts | 212° |
| 2026-05-06 16:06 | 42.59172 | 4.42680 | 36640 ft | 413 kts | 212° |
| 2026-05-06 16:06 | 42.56695 | 4.40829 | 36269 ft | 410 kts | 212° |
| 2026-05-06 16:07 | 42.54203 | 4.38970 | 35900 ft | 407 kts | 212° |
| 2026-05-06 16:07 | 42.51722 | 4.37120 | 35512 ft | 406 kts | 212° |
| 2026-05-06 16:07 | 42.49253 | 4.35280 | 35151 ft | 404 kts | 212° |
| 2026-05-06 16:07 | 42.46796 | 4.33451 | 34790 ft | 402 kts | 212° |
| 2026-05-06 16:08 | 42.44343 | 4.31626 | 34430 ft | 401 kts | 212° |
| 2026-05-06 16:08 | 42.41902 | 4.29812 | 34078 ft | 400 kts | 212° |
| 2026-05-06 16:08 | 42.39463 | 4.28001 | 33690 ft | 399 kts | 212° |
| 2026-05-06 16:08 | 42.37036 | 4.26200 | 33283 ft | 400 kts | 212° |
| 2026-05-06 16:09 | 42.34587 | 4.24384 | 32876 ft | 401 kts | 212° |
| 2026-05-06 16:09 | 42.32140 | 4.22573 | 32481 ft | 402 kts | 212° |
| 2026-05-06 16:09 | 42.29684 | 4.20756 | 32086 ft | 403 kts | 212° |
| 2026-05-06 16:09 | 42.27218 | 4.18933 | 31697 ft | 404 kts | 212° |
| 2026-05-06 16:10 | 42.24748 | 4.17109 | 31315 ft | 405 kts | 212° |
| 2026-05-06 16:10 | 42.22274 | 4.15283 | 30939 ft | 406 kts | 212° |
| 2026-05-06 16:10 | 42.19824 | 4.13477 | 30573 ft | 405 kts | 212° |
| 2026-05-06 16:10 | 42.17355 | 4.11660 | 30201 ft | 402 kts | 212° |
| 2026-05-06 16:11 | 42.14899 | 4.09854 | 29802 ft | 400 kts | 212° |
| 2026-05-06 16:11 | 42.12467 | 4.08067 | 29380 ft | 398 kts | 212° |
| 2026-05-06 16:11 | 42.10040 | 4.06285 | 28944 ft | 395 kts | 212° |
| 2026-05-06 16:11 | 42.07632 | 4.04519 | 28533 ft | 393 kts | 212° |
| 2026-05-06 16:12 | 42.05236 | 4.02762 | 28119 ft | 391 kts | 212° |
| 2026-05-06 16:12 | 42.02847 | 4.01012 | 27718 ft | 389 kts | 212° |
| 2026-05-06 16:12 | 42.00489 | 3.99286 | 27324 ft | 387 kts | 212° |
| 2026-05-06 16:12 | 41.98128 | 3.97560 | 26929 ft | 385 kts | 212° |
| 2026-05-06 16:13 | 41.95780 | 3.95847 | 26544 ft | 384 kts | 212° |
| 2026-05-06 16:13 | 41.93353 | 3.94329 | 26158 ft | 385 kts | 206° |
| 2026-05-06 16:13 | 41.90815 | 3.93163 | 25779 ft | 387 kts | 201° |
| 2026-05-06 16:13 | 41.88186 | 3.92357 | 25414 ft | 389 kts | 195° |
| 2026-05-06 16:14 | 41.85523 | 3.91762 | 25050 ft | 388 kts | 195° |
| 2026-05-06 16:14 | 41.82863 | 3.91160 | 24682 ft | 386 kts | 195° |
| 2026-05-06 16:14 | 41.80215 | 3.90553 | 24322 ft | 385 kts | 195° |
| 2026-05-06 16:14 | 41.77585 | 3.89948 | 24056 ft | 383 kts | 195° |
| 2026-05-06 16:15 | 41.74993 | 3.89350 | 23823 ft | 384 kts | 195° |
| 2026-05-06 16:15 | 41.72284 | 3.88716 | 23598 ft | 408 kts | 195° |
| 2026-05-06 16:15 | 41.69413 | 3.88043 | 23333 ft | 430 kts | 195° |
| 2026-05-06 16:15 | 41.66386 | 3.87345 | 23048 ft | 437 kts | 194° |
| 2026-05-06 16:16 | 41.63391 | 3.86666 | 22773 ft | 435 kts | 194° |
| 2026-05-06 16:16 | 41.60452 | 3.86000 | 22503 ft | 434 kts | 194° |
| 2026-05-06 16:16 | 41.57470 | 3.85321 | 22233 ft | 433 kts | 194° |
| 2026-05-06 16:16 | 41.54497 | 3.84641 | 21962 ft | 432 kts | 194° |
| 2026-05-06 16:17 | 41.51538 | 3.83962 | 21700 ft | 430 kts | 194° |
| 2026-05-06 16:17 | 41.48607 | 3.83290 | 21438 ft | 429 kts | 194° |
| 2026-05-06 16:17 | 41.45668 | 3.82616 | 21175 ft | 428 kts | 194° |
| 2026-05-06 16:17 | 41.42735 | 3.81945 | 20914 ft | 427 kts | 194° |
| 2026-05-06 16:18 | 41.39812 | 3.81276 | 20660 ft | 425 kts | 194° |
| 2026-05-06 16:18 | 41.36934 | 3.80619 | 20412 ft | 424 kts | 194° |
| 2026-05-06 16:18 | 41.34031 | 3.79956 | 20157 ft | 423 kts | 194° |
| 2026-05-06 16:18 | 41.31132 | 3.79295 | 19908 ft | 422 kts | 194° |
| 2026-05-06 16:19 | 41.28239 | 3.78636 | 19665 ft | 421 kts | 194° |
| 2026-05-06 16:19 | 41.25351 | 3.77978 | 19419 ft | 420 kts | 194° |
| 2026-05-06 16:19 | 41.22468 | 3.77322 | 19176 ft | 419 kts | 194° |
| 2026-05-06 16:19 | 41.19594 | 3.76669 | 18940 ft | 418 kts | 194° |
| 2026-05-06 16:20 | 41.16736 | 3.75990 | 18700 ft | 416 kts | 196° |
| 2026-05-06 16:20 | 41.13958 | 3.74989 | 18458 ft | 412 kts | 202° |
| 2026-05-06 16:20 | 41.11289 | 3.73650 | 18222 ft | 409 kts | 205° |
| 2026-05-06 16:20 | 41.08638 | 3.72265 | 17956 ft | 408 kts | 205° |
| 2026-05-06 16:21 | 41.05994 | 3.70891 | 17676 ft | 408 kts | 205° |
| 2026-05-06 16:21 | 41.03353 | 3.69525 | 17413 ft | 408 kts | 205° |
| 2026-05-06 16:21 | 41.00709 | 3.68163 | 17148 ft | 407 kts | 204° |
| 2026-05-06 16:21 | 40.98074 | 3.66808 | 16887 ft | 406 kts | 204° |
| 2026-05-06 16:22 | 40.95440 | 3.65455 | 16622 ft | 405 kts | 204° |
| 2026-05-06 16:22 | 40.92813 | 3.64107 | 16366 ft | 405 kts | 204° |
| 2026-05-06 16:22 | 40.90192 | 3.62763 | 16104 ft | 403 kts | 204° |
| 2026-05-06 16:22 | 40.87606 | 3.61438 | 15839 ft | 403 kts | 204° |
| 2026-05-06 16:23 | 40.84996 | 3.60101 | 15465 ft | 402 kts | 204° |
| 2026-05-06 16:23 | 40.82397 | 3.58772 | 15097 ft | 396 kts | 204° |
| 2026-05-06 16:23 | 40.79869 | 3.57482 | 14726 ft | 382 kts | 204° |
| 2026-05-06 16:23 | 40.77465 | 3.56258 | 14374 ft | 368 kts | 204° |
| 2026-05-06 16:24 | 40.75119 | 3.55062 | 14014 ft | 356 kts | 204° |
| 2026-05-06 16:24 | 40.72842 | 3.53901 | 13653 ft | 346 kts | 203° |
| 2026-05-06 16:24 | 40.70599 | 3.52757 | 13251 ft | 347 kts | 203° |
| 2026-05-06 16:24 | 40.68346 | 3.51607 | 12854 ft | 346 kts | 203° |
| 2026-05-06 16:25 | 40.66106 | 3.50466 | 12465 ft | 343 kts | 203° |
| 2026-05-06 16:25 | 40.63887 | 3.49338 | 12080 ft | 342 kts | 203° |
| 2026-05-06 16:25 | 40.61665 | 3.48209 | 11693 ft | 340 kts | 203° |
| 2026-05-06 16:25 | 40.60204 | 3.47467 | 11446 ft | 339 kts | 203° |
| 2026-05-06 16:26 | 40.58002 | 3.46349 | 11073 ft | 339 kts | 203° |
| 2026-05-06 16:26 | 40.55809 | 3.45236 | 10704 ft | 337 kts | 203° |
| 2026-05-06 16:26 | 40.53617 | 3.44125 | 10341 ft | 336 kts | 203° |
| 2026-05-06 16:26 | 40.50747 | 3.42672 | 10073 ft | 333 kts | 203° |
| 2026-05-06 16:27 | 40.49281 | 3.41930 | 10015 ft | 335 kts | 203° |
| 2026-05-06 16:27 | 40.47099 | 3.40826 | 9999 ft | 335 kts | 203° |
| 2026-05-06 16:27 | 40.44894 | 3.39834 | 10000 ft | 336 kts | 197° |
| 2026-05-06 16:27 | 40.42573 | 3.39369 | 9997 ft | 339 kts | 186° |
| 2026-05-06 16:28 | 40.40238 | 3.39435 | 9998 ft | 341 kts | 180° |
| 2026-05-06 16:28 | 40.37872 | 3.39589 | 9992 ft | 336 kts | 180° |
| 2026-05-06 16:28 | 40.35601 | 3.39729 | 9996 ft | 317 kts | 180° |
| 2026-05-06 16:28 | 40.33409 | 3.39858 | 9998 ft | 318 kts | 180° |
| 2026-05-06 16:29 | 40.31190 | 3.39980 | 9999 ft | 318 kts | 180° |
| 2026-05-06 16:29 | 40.28985 | 3.40103 | 10002 ft | 318 kts | 180° |
| 2026-05-06 16:29 | 40.26770 | 3.40227 | 9995 ft | 317 kts | 180° |
| 2026-05-06 16:29 | 40.24564 | 3.40352 | 9998 ft | 317 kts | 180° |
| 2026-05-06 16:30 | 40.22356 | 3.40477 | 9997 ft | 317 kts | 180° |
| 2026-05-06 16:30 | 40.20893 | 3.40559 | 9998 ft | 317 kts | 180° |
| 2026-05-06 16:30 | 40.17940 | 3.40727 | 9997 ft | 317 kts | 180° |
| 2026-05-06 16:30 | 40.15747 | 3.40851 | 10000 ft | 312 kts | 180° |
| 2026-05-06 16:31 | 40.13632 | 3.40975 | 9996 ft | 295 kts | 180° |
| 2026-05-06 16:31 | 40.11630 | 3.41092 | 9997 ft | 286 kts | 181° |
| 2026-05-06 16:31 | 40.09623 | 3.41203 | 9999 ft | 290 kts | 181° |
| 2026-05-06 16:31 | 40.07640 | 3.41306 | 9997 ft | 288 kts | 183° |
| 2026-05-06 16:32 | 40.05697 | 3.40866 | 10000 ft | 284 kts | 199° |
| 2026-05-06 16:32 | 40.03802 | 3.40129 | 10002 ft | 284 kts | 199° |
| 2026-05-06 16:32 | 40.01914 | 3.39381 | 10002 ft | 283 kts | 199° |
| 2026-05-06 16:32 | 40.00028 | 3.38634 | 9996 ft | 283 kts | 199° |
| 2026-05-06 16:33 | 39.98139 | 3.37889 | 9997 ft | 284 kts | 199° |
| 2026-05-06 16:33 | 39.96273 | 3.37158 | 9998 ft | 273 kts | 199° |
| 2026-05-06 16:33 | 39.94466 | 3.36453 | 9997 ft | 271 kts | 199° |
| 2026-05-06 16:34 | 39.90836 | 3.35034 | 9996 ft | 272 kts | 199° |
| 2026-05-06 16:34 | 39.89020 | 3.34325 | 9985 ft | 272 kts | 199° |
| 2026-05-06 16:34 | 39.87202 | 3.33616 | 9736 ft | 274 kts | 199° |
| 2026-05-06 16:34 | 39.85364 | 3.32898 | 9126 ft | 280 kts | 199° |
| 2026-05-06 16:35 | 39.83518 | 3.32176 | 8465 ft | 287 kts | 199° |
| 2026-05-06 16:35 | 39.81619 | 3.31438 | 8168 ft | 280 kts | 199° |
| 2026-05-06 16:35 | 39.79792 | 3.30731 | 8030 ft | 268 kts | 199° |
| 2026-05-06 16:35 | 39.78025 | 3.30046 | 7999 ft | 267 kts | 199° |
| 2026-05-06 16:36 | 39.76275 | 3.29365 | 7997 ft | 268 kts | 199° |
| 2026-05-06 16:36 | 39.74457 | 3.28658 | 7998 ft | 266 kts | 199° |
| 2026-05-06 16:36 | 39.72683 | 3.27969 | 7997 ft | 267 kts | 199° |
| 2026-05-06 16:36 | 39.70904 | 3.27278 | 8004 ft | 267 kts | 199° |
| 2026-05-06 16:37 | 39.69126 | 3.26590 | 7883 ft | 265 kts | 199° |
| 2026-05-06 16:37 | 39.67364 | 3.25903 | 7567 ft | 264 kts | 200° |
| 2026-05-06 16:37 | 39.65789 | 3.24737 | 7110 ft | 263 kts | 225° |
| 2026-05-06 16:37 | 39.64732 | 3.22802 | 6638 ft | 264 kts | 240° |
| 2026-05-06 16:38 | 39.63813 | 3.20726 | 6217 ft | 265 kts | 241° |
| 2026-05-06 16:38 | 39.62919 | 3.18679 | 6041 ft | 255 kts | 241° |
| 2026-05-06 16:38 | 39.62070 | 3.16756 | 5994 ft | 244 kts | 241° |
| 2026-05-06 16:38 | 39.61211 | 3.14826 | 5995 ft | 247 kts | 240° |
| 2026-05-06 16:39 | 39.60334 | 3.12875 | 5999 ft | 247 kts | 240° |
| 2026-05-06 16:39 | 39.59479 | 3.10980 | 5993 ft | 247 kts | 240° |
| 2026-05-06 16:39 | 39.58613 | 3.09064 | 5998 ft | 246 kts | 240° |
| 2026-05-06 16:39 | 39.57744 | 3.07143 | 5998 ft | 247 kts | 240° |
| 2026-05-06 16:40 | 39.56879 | 3.05232 | 6000 ft | 245 kts | 240° |
| 2026-05-06 16:40 | 39.56014 | 3.03319 | 6001 ft | 246 kts | 240° |
| 2026-05-06 16:40 | 39.55165 | 3.01444 | 5996 ft | 235 kts | 240° |
| 2026-05-06 16:40 | 39.54361 | 2.99672 | 5998 ft | 220 kts | 240° |
| 2026-05-06 16:41 | 39.53599 | 2.97993 | 6002 ft | 219 kts | 240° |
| 2026-05-06 16:41 | 39.52826 | 2.96285 | 5994 ft | 217 kts | 240° |
| 2026-05-06 16:41 | 39.52061 | 2.94599 | 5819 ft | 219 kts | 240° |
| 2026-05-06 16:41 | 39.51279 | 2.92877 | 5359 ft | 226 kts | 240° |
| 2026-05-06 16:42 | 39.50464 | 2.91057 | 4670 ft | 242 kts | 242° |
| 2026-05-06 16:42 | 39.49623 | 2.89126 | 4179 ft | 245 kts | 242° |
| 2026-05-06 16:42 | 39.48814 | 2.87265 | 4023 ft | 229 kts | 242° |
| 2026-05-06 16:42 | 39.48067 | 2.85558 | 3992 ft | 207 kts | 242° |
| 2026-05-06 16:43 | 39.47381 | 2.84004 | 4001 ft | 195 kts | 242° |
| 2026-05-06 16:43 | 39.46709 | 2.82478 | 4003 ft | 194 kts | 242° |
| 2026-05-06 16:43 | 39.46041 | 2.80960 | 4003 ft | 195 kts | 242° |
| 2026-05-06 16:43 | 39.45371 | 2.79436 | 3992 ft | 193 kts | 242° |
| 2026-05-06 16:44 | 39.44701 | 2.77924 | 3813 ft | 195 kts | 242° |
| 2026-05-06 16:44 | 39.44060 | 2.76470 | 3407 ft | 192 kts | 242° |
| 2026-05-06 16:44 | 39.43411 | 2.74986 | 3095 ft | 185 kts | 242° |
| 2026-05-06 16:44 | 39.42794 | 2.73567 | 2995 ft | 181 kts | 242° |
| 2026-05-06 16:45 | 39.42391 | 2.72028 | 3010 ft | 184 kts | 261° |
| 2026-05-06 16:45 | 39.42200 | 2.70415 | 2997 ft | 177 kts | 262° |
| 2026-05-06 16:45 | 39.42016 | 2.68855 | 3002 ft | 176 kts | 262° |
| 2026-05-06 16:45 | 39.41829 | 2.67312 | 3006 ft | 177 kts | 262° |
| 2026-05-06 16:46 | 39.41637 | 2.65745 | 2998 ft | 171 kts | 262° |
| 2026-05-06 16:46 | 39.41454 | 2.64258 | 3005 ft | 166 kts | 262° |
| 2026-05-06 16:46 | 39.41274 | 2.62796 | 3004 ft | 168 kts | 262° |
| 2026-05-06 16:46 | 39.41096 | 2.61320 | 3003 ft | 167 kts | 262° |
| 2026-05-06 16:47 | 39.40914 | 2.59842 | 2994 ft | 166 kts | 262° |
| 2026-05-06 16:47 | 39.40734 | 2.58369 | 3004 ft | 164 kts | 262° |
| 2026-05-06 16:47 | 39.40558 | 2.56936 | 3001 ft | 161 kts | 262° |
| 2026-05-06 16:47 | 39.40545 | 2.55505 | 2987 ft | 161 kts | 289° |
| 2026-05-06 16:48 | 39.41263 | 2.54439 | 2995 ft | 164 kts | 332° |
| 2026-05-06 16:48 | 39.42395 | 2.54346 | 3001 ft | 171 kts | 17° |
| 2026-05-06 16:48 | 39.43428 | 2.55130 | 2988 ft | 174 kts | 32° |
| 2026-05-06 16:48 | 39.44415 | 2.56002 | 2730 ft | 172 kts | 32° |
| 2026-05-06 16:49 | 39.45393 | 2.56859 | 2529 ft | 165 kts | 32° |
| 2026-05-06 16:49 | 39.46306 | 2.57655 | 2509 ft | 157 kts | 32° |
| 2026-05-06 16:49 | 39.47190 | 2.58433 | 2486 ft | 144 kts | 32° |
| 2026-05-06 16:49 | 39.47898 | 2.59063 | 2514 ft | 138 kts | 32° |
| 2026-05-06 16:50 | 39.48681 | 2.59765 | 2503 ft | 136 kts | 32° |
| 2026-05-06 16:50 | 39.49448 | 2.60506 | 2487 ft | 139 kts | 40° |
| 2026-05-06 16:50 | 39.50090 | 2.61446 | 2495 ft | 139 kts | 51° |
| 2026-05-06 16:50 | 39.50632 | 2.62471 | 2468 ft | 139 kts | 56° |
| 2026-05-06 16:51 | 39.51156 | 2.63554 | 2206 ft | 145 kts | 57° |
| 2026-05-06 16:51 | 39.51699 | 2.64700 | 1886 ft | 149 kts | 58° |
| 2026-05-06 16:51 | 39.52223 | 2.65809 | 1674 ft | 141 kts | 58° |
| 2026-05-06 16:51 | 39.52737 | 2.66896 | 1414 ft | 142 kts | 58° |
| 2026-05-06 16:52 | 39.53213 | 2.67927 | 1351 ft | 139 kts | 59° |
| 2026-05-06 16:52 | 39.53950 | 2.68728 | 1425 ft | 141 kts | 14° |
| 2026-05-06 16:52 | 39.54892 | 2.68631 | 1949 ft | 134 kts | 334° |
| 2026-05-06 16:52 | 39.55447 | 2.67792 | 2634 ft | 125 kts | 281° |
| 2026-05-06 16:53 | 39.55227 | 2.66736 | 2909 ft | 131 kts | 227° |
| 2026-05-06 16:53 | 39.54287 | 2.66112 | 3023 ft | 174 kts | 202° |
| 2026-05-06 16:53 | 39.53093 | 2.65565 | 3014 ft | 187 kts | 201° |
| 2026-05-06 16:53 | 39.51872 | 2.65006 | 3001 ft | 188 kts | 201° |
| 2026-05-06 16:54 | 39.50634 | 2.64439 | 3005 ft | 187 kts | 201° |
| 2026-05-06 16:54 | 39.49401 | 2.63879 | 2996 ft | 187 kts | 202° |
| 2026-05-06 16:54 | 39.48175 | 2.63324 | 3003 ft | 187 kts | 201° |
| 2026-05-06 16:54 | 39.46944 | 2.62770 | 2998 ft | 188 kts | 201° |
| 2026-05-06 16:55 | 39.45713 | 2.62216 | 3006 ft | 187 kts | 202° |
| 2026-05-06 16:55 | 39.44500 | 2.61673 | 3001 ft | 188 kts | 202° |
| 2026-05-06 16:55 | 39.43269 | 2.61122 | 2991 ft | 186 kts | 202° |
| 2026-05-06 16:55 | 39.42083 | 2.60462 | 2993 ft | 185 kts | 220° |
| 2026-05-06 16:56 | 39.41318 | 2.59180 | 2995 ft | 182 kts | 242° |
| 2026-05-06 16:56 | 39.40688 | 2.57771 | 2991 ft | 174 kts | 242° |
| 2026-05-06 16:56 | 39.40106 | 2.56467 | 3001 ft | 167 kts | 242° |
| 2026-05-06 16:56 | 39.39518 | 2.55169 | 2998 ft | 166 kts | 242° |
| 2026-05-06 16:57 | 39.38950 | 2.53875 | 2996 ft | 167 kts | 249° |
| 2026-05-06 16:57 | 39.38920 | 2.52432 | 2998 ft | 165 kts | 291° |
| 2026-05-06 16:57 | 39.39694 | 2.51376 | 2996 ft | 167 kts | 334° |
| 2026-05-06 16:57 | 39.40861 | 2.51323 | 3004 ft | 176 kts | 17° |
| 2026-05-06 16:58 | 39.41917 | 2.52147 | 3001 ft | 179 kts | 33° |
| 2026-05-06 16:58 | 39.42865 | 2.53191 | 3005 ft | 176 kts | 40° |
| 2026-05-06 16:58 | 39.43717 | 2.54211 | 2904 ft | 160 kts | 40° |
| 2026-05-06 16:58 | 39.44542 | 2.55139 | 2611 ft | 154 kts | 27° |
| 2026-05-06 16:59 | 39.45503 | 2.55746 | 2519 ft | 157 kts | 22° |
| 2026-05-06 16:59 | 39.46485 | 2.56337 | 2489 ft | 153 kts | 22° |
| 2026-05-06 16:59 | 39.47441 | 2.56944 | 2418 ft | 156 kts | 28° |
| 2026-05-06 16:59 | 39.48262 | 2.57819 | 2277 ft | 148 kts | 45° |
| 2026-05-06 17:00 | 39.48873 | 2.58823 | 2143 ft | 138 kts | 53° |
| 2026-05-06 17:00 | 39.49401 | 2.59859 | 2074 ft | 142 kts | 56° |
| 2026-05-06 17:00 | 39.49902 | 2.60903 | 1884 ft | 140 kts | 57° |
| 2026-05-06 17:00 | 39.50402 | 2.61957 | 1717 ft | 138 kts | 58° |
| 2026-05-06 17:01 | 39.50908 | 2.63025 | 1523 ft | 141 kts | 59° |
| 2026-05-06 17:01 | 39.51413 | 2.64094 | 1331 ft | 141 kts | 58° |
| 2026-05-06 17:01 | 39.51796 | 2.64904 | 1182 ft | 139 kts | 58° |
| 2026-05-06 17:01 | 39.52286 | 2.65940 | 993 ft | 131 kts | 58° |
| 2026-05-06 17:02 | 39.52753 | 2.66928 | 805 ft | 126 kts | 57° |
| 2026-05-06 17:02 | 39.53200 | 2.67875 | 635 ft | 125 kts | 56° |
| 2026-05-06 17:02 | 39.53618 | 2.68758 | 478 ft | 122 kts | 56° |
| 2026-05-06 17:02 | 39.54073 | 2.69723 | 311 ft | 124 kts | 56° |
| 2026-05-06 17:03 | 39.54523 | 2.70676 | 147 ft | 125 kts | 55° |
| 2026-05-06 17:03 | 39.54979 | 2.71632 | 25 ft | 118 kts | 57° |
| 2026-05-06 17:03 | 39.55249 | 2.72210 | 23 ft | 39 kts | 56° |
| 2026-05-06 17:03 | 39.55393 | 2.72504 | 20 ft | 39 kts | 59° |
| 2026-05-06 17:04 | 39.55462 | 2.72653 | 19 ft | 4 kts | 58° |
| 2026-05-06 17:04 | 39.55490 | 2.72711 | 20 ft | 13 kts | 59° |
| 2026-05-06 17:04 | 39.55471 | 2.72844 | 21 ft | 19 kts | 122° |
| 2026-05-06 17:04 | 39.55441 | 2.72901 | 20 ft | 0 kts | 125° |
| 2026-05-06 17:05 | 39.55440 | 2.72904 | 20 ft | 3 kts | 125° |
| 2026-05-06 17:06 | 39.55429 | 2.73019 | 22 ft | 18 kts | 65° |
| 2026-05-06 17:06 | 39.55499 | 2.73178 | 20 ft | 22 kts | 58° |
| 2026-05-06 17:06 | 39.55573 | 2.73329 | 19 ft | 20 kts | 58° |
| 2026-05-06 17:06 | 39.55623 | 2.73463 | 19 ft | 16 kts | 94° |
| 2026-05-06 17:07 | 39.55543 | 2.73560 | 20 ft | 16 kts | 156° |
| 2026-05-06 17:07 | 39.55457 | 2.73480 | 20 ft | 18 kts | 232° |
| 2026-05-06 17:07 | 39.55385 | 2.73480 | 21 ft | 10 kts | 150° |
| 2026-05-06 17:07 | 39.55309 | 2.73533 | 22 ft | 15 kts | 150° |
| 2026-05-06 17:08 | 39.55209 | 2.73616 | 27 ft | 18 kts | 150° |
| 2026-05-06 17:08 | 39.55142 | 2.73609 | 27 ft | 8 kts | 246° |
| 2026-05-06 17:08 | 39.55093 | 2.73581 | 29 ft | 5 kts | 174° |
| 2026-05-06 17:08 | 39.55061 | 2.73593 | 27 ft | 0 kts | 163° |